Time;durP1;ratioP1;P1;durP2;ratioP2;P2;SDS_P1;SDS_P2;PMS_P1;PMS_P2;Temp;Humidity;BMP_temperature;BMP_pressure;BME280_temperature;BME280_humidity;BME280_pressure;Samples;Min_cycle;Max_cycle;Signal;HPM_P1;HPM_P2
2023/05/22 00:01:06;;;;;;;1.08;0.85;;;;;;;;;;5134486;27;20043;-62
2023/05/22 00:03:35;;;;;;;1.02;0.85;;;;;;;;;;5136210;27;20030;-62
2023/05/22 00:06:01;;;;;;;0.75;0.60;;;;;;;;;;5133777;27;20477;-62
2023/05/22 00:08:28;;;;;;;0.98;0.85;;;;;;;;;;5131041;27;20620;-62
2023/05/22 00:10:55;;;;;;;2.15;1.27;;;;;;;;;;5130880;27;20046;-62
2023/05/22 00:13:22;;;;;;;4.13;0.90;;;;;;;;;;5131073;27;20034;-62
2023/05/22 00:15:49;;;;;;;1.05;0.80;;;;;;;;;;5132916;27;20077;-62
2023/05/22 00:18:15;;;;;;;0.65;0.60;;;;;;;;;;5136191;27;20469;-62
2023/05/22 00:20:45;;;;;;;1.67;1.02;;;;;;;;;;5136056;27;20031;-62
2023/05/22 00:23:12;;;;;;;1.05;0.80;;;;;;;;;;5135963;27;20031;-62
2023/05/22 00:25:40;;;;;;;3.92;0.98;;;;;;;;;;5135820;27;20493;-61
2023/05/22 00:28:06;;;;;;;1.75;1.13;;;;;;;;;;5133497;27;20030;-62
2023/05/22 00:30:33;;;;;;;2.05;1.25;;;;;;;;;;5130808;27;20019;-62
2023/05/22 00:33:01;;;;;;;17.42;1.13;;;;;;;;;;5130577;27;20043;-62
2023/05/22 00:35:27;;;;;;;0.93;0.75;;;;;;;;;;5130649;27;20027;-62
2023/05/22 00:37:54;;;;;;;1.83;1.00;;;;;;;;;;5131585;27;20027;-62
2023/05/22 00:40:21;;;;;;;1.00;0.80;;;;;;;;;;5135428;27;20019;-62
2023/05/22 00:42:48;;;;;;;0.82;0.60;;;;;;;;;;5135319;27;20027;-62
2023/05/22 00:45:15;;;;;;;0.65;0.63;;;;;;;;;;5135842;27;20034;-61
2023/05/22 00:47:42;;;;;;;2.50;1.20;;;;;;;;;;5135639;27;20132;-62
2023/05/22 00:50:10;;;;;;;4.18;1.20;;;;;;;;;;5127056;27;20019;-63
2023/05/22 00:52:43;;;;;;;2.10;1.10;;;;;;;;;;5109680;28;20030;-62
2023/05/22 00:55:11;;;;;;;0.77;0.63;;;;;;;;;;5109193;28;20032;-62
2023/05/22 00:57:41;;;;;;;3.50;1.23;;;;;;;;;;5109598;28;20056;-64
2023/05/22 01:00:12;;;;;;;3.17;1.00;;;;;;;;;;5110585;28;20055;-62
2023/05/22 01:02:41;;;;;;;1.25;0.80;;;;;;;;;;5114944;28;20477;-62
2023/05/22 01:05:10;;;;;;;2.30;0.93;;;;;;;;;;5114847;28;20076;-61
2023/05/22 01:07:36;;;;;;;1.67;1.10;;;;;;;;;;5114596;28;20027;-62
2023/05/22 01:10:07;;;;;;;1.10;0.80;;;;;;;;;;5114199;28;20054;-62
2023/05/22 01:12:57;;;;;;;2.13;1.33;;;;;;;;;;5112693;28;20020;-62
2023/05/22 01:15:30;;;;;;;3.58;1.42;;;;;;;;;;5098913;28;20039;-62
2023/05/22 01:18:09;;;;;;;2.85;1.45;;;;;;;;;;5109175;28;20049;-62
2023/05/22 01:20:47;;;;;;;4.85;1.40;;;;;;;;;;5109485;28;20027;-62
2023/05/22 01:23:16;;;;;;;3.90;2.25;;;;;;;;;;5112098;28;20462;-61
2023/05/22 01:25:46;;;;;;;1.77;1.20;;;;;;;;;;5114405;28;20028;-61
2023/05/22 01:28:31;;;;;;;2.63;1.17;;;;;;;;;;5114416;28;20031;-62
2023/05/22 01:31:09;;;;;;;3.58;1.75;;;;;;;;;;5114412;28;20045;-62
2023/05/22 01:33:46;;;;;;;3.03;1.43;;;;;;;;;;5114118;28;20029;-62
2023/05/22 01:36:13;;;;;;;3.90;1.42;;;;;;;;;;5109823;28;20465;-62
2023/05/22 01:38:41;;;;;;;2.65;1.55;;;;;;;;;;5108707;28;20032;-61
2023/05/22 01:41:09;;;;;;;2.42;1.02;;;;;;;;;;5108891;28;20412;-62
2023/05/22 01:43:35;;;;;;;1.60;1.05;;;;;;;;;;5108952;28;20032;-62
2023/05/22 01:46:02;;;;;;;2.03;1.30;;;;;;;;;;5112396;28;20103;-61
2023/05/22 01:48:29;;;;;;;2.93;0.93;;;;;;;;;;5114098;28;20015;-62
2023/05/22 01:50:58;;;;;;;2.40;0.87;;;;;;;;;;5113605;28;20019;-62
2023/05/22 01:53:38;;;;;;;2.33;1.37;;;;;;;;;;5113164;28;20038;-61
2023/05/22 01:56:10;;;;;;;2.30;0.50;;;;;;;;;;5113606;28;20031;-61
2023/05/22 01:58:55;;;;;;;2.77;0.80;;;;;;;;;;5109001;28;20035;-61
2023/05/22 02:01:23;;;;;;;1.23;0.80;;;;;;;;;;5108398;28;20308;-62
2023/05/22 02:03:55;;;;;;;1.60;1.03;;;;;;;;;;5108034;28;20024;-62
2023/05/22 02:06:22;;;;;;;4.63;1.20;;;;;;;;;;5108174;28;20031;-62
2023/05/22 02:08:50;;;;;;;1.07;0.77;;;;;;;;;;5112835;28;20096;-61
2023/05/22 02:11:17;;;;;;;1.17;0.80;;;;;;;;;;5113406;28;20504;-61
2023/05/22 02:13:44;;;;;;;1.57;0.83;;;;;;;;;;5113887;28;20366;-61
2023/05/22 02:16:12;;;;;;;6.87;1.37;;;;;;;;;;5113384;28;20355;-61
2023/05/22 02:18:40;;;;;;;1.57;1.13;;;;;;;;;;5113268;28;20050;-61
2023/05/22 02:21:07;;;;;;;1.40;0.70;;;;;;;;;;5107913;28;20461;-62
2023/05/22 02:23:34;;;;;;;4.00;1.30;;;;;;;;;;5107303;28;20470;-62
2023/05/22 02:26:01;;;;;;;2.17;1.30;;;;;;;;;;5107829;28;20490;-62
2023/05/22 02:28:28;;;;;;;16.97;1.10;;;;;;;;;;5108080;28;20066;-61
2023/05/22 02:30:55;;;;;;;3.80;1.00;;;;;;;;;;5111834;28;20035;-61
2023/05/22 02:33:21;;;;;;;1.93;1.20;;;;;;;;;;5113087;28;20031;-61
2023/05/22 02:35:48;;;;;;;2.27;1.00;;;;;;;;;;5113218;28;20012;-61
2023/05/22 02:38:15;;;;;;;2.67;1.90;;;;;;;;;;5112403;28;20213;-62
2023/05/22 02:40:42;;;;;;;2.27;0.83;;;;;;;;;;5113101;28;20551;-61
2023/05/22 02:43:08;;;;;;;2.97;1.37;;;;;;;;;;5108812;28;20085;-61
2023/05/22 02:45:35;;;;;;;1.33;0.90;;;;;;;;;;5107544;28;20022;-62
2023/05/22 02:48:02;;;;;;;1.73;1.07;;;;;;;;;;5107619;28;20042;-61
2023/05/22 02:50:29;;;;;;;1.67;0.83;;;;;;;;;;5107417;28;20034;-62
2023/05/22 02:52:55;;;;;;;2.13;1.13;;;;;;;;;;5110812;28;20416;-61
2023/05/22 02:55:22;;;;;;;2.43;0.90;;;;;;;;;;5112922;28;20015;-62
2023/05/22 02:57:49;;;;;;;1.00;0.90;;;;;;;;;;5112516;28;20393;-62
2023/05/22 03:00:18;;;;;;;2.23;0.90;;;;;;;;;;5112609;28;20369;-61
2023/05/22 03:02:46;;;;;;;3.60;1.03;;;;;;;;;;5112779;28;20031;-62
2023/05/22 03:05:16;;;;;;;2.80;1.63;;;;;;;;;;5109381;28;20020;-62
2023/05/22 03:07:43;;;;;;;3.73;1.87;;;;;;;;;;5107426;28;20106;-62
2023/05/22 03:10:10;;;;;;;2.03;1.20;;;;;;;;;;5107245;28;20040;-61
2023/05/22 03:12:37;;;;;;;3.53;1.50;;;;;;;;;;5106979;28;20039;-62
2023/05/22 03:15:03;;;;;;;1.40;1.00;;;;;;;;;;5110134;28;20073;-61
2023/05/22 03:17:30;;;;;;;1.13;0.80;;;;;;;;;;5112331;28;20074;-61
2023/05/22 03:19:57;;;;;;;2.67;1.37;;;;;;;;;;5112653;28;20024;-62
2023/05/22 03:22:24;;;;;;;3.10;1.70;;;;;;;;;;5112497;28;20374;-61
2023/05/22 03:24:51;;;;;;;2.53;1.67;;;;;;;;;;5112664;28;20023;-62
2023/05/22 03:27:19;;;;;;;5.07;1.07;;;;;;;;;;5109591;28;20023;-61
2023/05/22 03:29:45;;;;;;;4.10;1.03;;;;;;;;;;5106940;28;20480;-62
2023/05/22 03:32:12;;;;;;;1.80;1.20;;;;;;;;;;5107022;28;20020;-61
2023/05/22 03:34:39;;;;;;;1.23;0.73;;;;;;;;;;5107959;28;20019;-61
2023/05/22 03:37:07;;;;;;;1.80;1.13;;;;;;;;;;5113228;28;20027;-62
2023/05/22 03:39:35;;;;;;;1.20;0.77;;;;;;;;;;5116612;28;20028;-61
2023/05/22 03:42:01;;;;;;;3.50;1.83;;;;;;;;;;5116473;28;20016;-62
2023/05/22 03:44:28;;;;;;;3.67;1.77;;;;;;;;;;5116422;28;20016;-61
2023/05/22 03:46:55;;;;;;;2.83;1.60;;;;;;;;;;5116478;28;20054;-62
2023/05/22 03:49:21;;;;;;;11.77;1.97;;;;;;;;;;5113675;28;20027;-62
2023/05/22 03:51:48;;;;;;;3.10;1.17;;;;;;;;;;5110899;28;20026;-61
2023/05/22 03:54:15;;;;;;;2.50;1.67;;;;;;;;;;5110771;28;20024;-62
2023/05/22 03:56:42;;;;;;;1.90;1.43;;;;;;;;;;5110912;28;20023;-62
2023/05/22 03:59:09;;;;;;;3.07;1.80;;;;;;;;;;5111869;28;20023;-62
2023/05/22 04:01:37;;;;;;;10.47;1.23;;;;;;;;;;5116095;28;20020;-61
2023/05/22 04:04:05;;;;;;;2.97;1.37;;;;;;;;;;5115992;28;20434;-62
2023/05/22 04:06:32;;;;;;;1.53;1.00;;;;;;;;;;5115612;28;20016;-61
2023/05/22 04:08:59;;;;;;;12.70;1.40;;;;;;;;;;5115869;28;20485;-61
2023/05/22 04:11:25;;;;;;;3.13;1.43;;;;;;;;;;5114389;28;20088;-61
2023/05/22 04:13:52;;;;;;;3.07;1.37;;;;;;;;;;5110453;28;20031;-61
2023/05/22 04:16:19;;;;;;;2.93;1.17;;;;;;;;;;5110435;28;20059;-62
2023/05/22 04:18:46;;;;;;;2.40;1.50;;;;;;;;;;5110509;28;20036;-61
2023/05/22 04:21:13;;;;;;;2.67;1.20;;;;;;;;;;5110979;28;20035;-62
2023/05/22 04:23:42;;;;;;;2.00;1.37;;;;;;;;;;5115161;28;20019;-62
2023/05/22 04:26:09;;;;;;;0.70;0.70;;;;;;;;;;5115504;28;20483;-61
2023/05/22 04:28:36;;;;;;;1.27;0.97;;;;;;;;;;5115572;28;20031;-61
2023/05/22 04:31:05;;;;;;;0.87;0.70;;;;;;;;;;5115544;28;20016;-61
2023/05/22 04:33:33;;;;;;;1.73;1.10;;;;;;;;;;5114505;28;20044;-62
2023/05/22 04:36:01;;;;;;;1.90;1.37;;;;;;;;;;5110253;28;20068;-61
2023/05/22 04:38:27;;;;;;;1.60;0.80;;;;;;;;;;5109882;28;20047;-61
2023/05/22 04:40:54;;;;;;;2.57;1.27;;;;;;;;;;5109553;28;20072;-61
2023/05/22 04:43:25;;;;;;;3.03;1.93;;;;;;;;;;5109725;28;20054;-62
2023/05/22 04:45:52;;;;;;;3.10;1.60;;;;;;;;;;5114606;28;20034;-61
2023/05/22 04:48:19;;;;;;;5.73;1.83;;;;;;;;;;5114916;28;20114;-61
2023/05/22 04:50:47;;;;;;;2.07;1.47;;;;;;;;;;5115391;28;20055;-61
2023/05/22 04:53:13;;;;;;;9.23;2.00;;;;;;;;;;5114953;28;20032;-61
2023/05/22 04:55:40;;;;;;;2.63;1.37;;;;;;;;;;5114515;28;20060;-61
2023/05/22 04:58:07;;;;;;;2.20;1.47;;;;;;;;;;5109100;28;20024;-62
2023/05/22 05:00:34;;;;;;;2.97;1.60;;;;;;;;;;5109345;28;20359;-61
2023/05/22 05:03:01;;;;;;;2.43;1.67;;;;;;;;;;5109533;28;21080;-61
2023/05/22 05:05:28;;;;;;;2.03;1.57;;;;;;;;;;5109507;28;20470;-61
2023/05/22 05:07:55;;;;;;;2.23;1.43;;;;;;;;;;5114368;28;20030;-61
2023/05/22 05:10:21;;;;;;;2.60;1.40;;;;;;;;;;5114882;28;20042;-61
2023/05/22 05:12:48;;;;;;;6.60;1.47;;;;;;;;;;5114718;28;20046;-61
2023/05/22 05:15:15;;;;;;;2.03;1.47;;;;;;;;;;5114542;28;20466;-61
2023/05/22 05:17:42;;;;;;;1.00;0.87;;;;;;;;;;5114161;28;20023;-62
2023/05/22 05:20:09;;;;;;;1.27;1.03;;;;;;;;;;5109224;28;20381;-61
2023/05/22 05:22:36;;;;;;;2.33;0.97;;;;;;;;;;5109161;28;20107;-62
2023/05/22 05:25:04;;;;;;;2.53;1.37;;;;;;;;;;5109117;28;20122;-61
2023/05/22 05:27:31;;;;;;;2.13;1.27;;;;;;;;;;5109176;28;20547;-61
2023/05/22 05:29:57;;;;;;;21.63;1.53;;;;;;;;;;5113389;28;20027;-61
2023/05/22 05:32:24;;;;;;;19.40;2.03;;;;;;;;;;5114312;28;20462;-61
2023/05/22 05:34:51;;;;;;;2.00;1.20;;;;;;;;;;5113984;28;20068;-61
2023/05/22 05:37:18;;;;;;;2.27;1.47;;;;;;;;;;5114124;28;20027;-61
2023/05/22 05:39:45;;;;;;;1.00;0.70;;;;;;;;;;5114206;28;20035;-61
2023/05/22 05:42:11;;;;;;;2.33;1.40;;;;;;;;;;5109513;28;20077;-62
2023/05/22 05:44:38;;;;;;;2.07;1.37;;;;;;;;;;5108823;28;20413;-62
2023/05/22 05:47:05;;;;;;;1.80;1.03;;;;;;;;;;5108506;28;20428;-62
2023/05/22 05:49:32;;;;;;;1.37;1.00;;;;;;;;;;5108503;28;20024;-61
2023/05/22 05:51:59;;;;;;;3.23;2.23;;;;;;;;;;5111354;28;20067;-61
2023/05/22 05:54:25;;;;;;;1.23;1.00;;;;;;;;;;5114006;28;20106;-61
2023/05/22 05:56:52;;;;;;;0.93;0.67;;;;;;;;;;5113941;28;20106;-61
2023/05/22 05:59:19;;;;;;;2.40;1.30;;;;;;;;;;5112867;28;20027;-61
2023/05/22 06:01:46;;;;;;;2.27;1.50;;;;;;;;;;5113759;28;20382;-61
2023/05/22 06:04:13;;;;;;;1.23;1.10;;;;;;;;;;5109906;28;20030;-61
2023/05/22 06:06:41;;;;;;;4.83;1.70;;;;;;;;;;5108345;28;20543;-61
2023/05/22 06:09:08;;;;;;;2.73;1.47;;;;;;;;;;5107276;28;20031;-62
2023/05/22 06:11:36;;;;;;;6.40;1.53;;;;;;;;;;5108251;28;20107;-61
2023/05/22 06:14:03;;;;;;;1.13;0.97;;;;;;;;;;5110808;28;20028;-61
2023/05/22 06:16:30;;;;;;;2.23;1.30;;;;;;;;;;5113544;28;20041;-62
2023/05/22 06:18:59;;;;;;;1.77;1.30;;;;;;;;;;5113176;28;20038;-61
2023/05/22 06:21:26;;;;;;;3.77;1.90;;;;;;;;;;5113187;28;20474;-61
2023/05/22 06:23:53;;;;;;;1.33;1.07;;;;;;;;;;5113294;28;20023;-61
2023/05/22 06:26:21;;;;;;;2.60;1.50;;;;;;;;;;5109345;28;20032;-61
2023/05/22 06:28:47;;;;;;;1.90;1.37;;;;;;;;;;5107992;28;20458;-61
2023/05/22 06:31:14;;;;;;;1.97;1.47;;;;;;;;;;5107782;28;20462;-61
2023/05/22 06:33:41;;;;;;;1.43;1.03;;;;;;;;;;5107864;28;20028;-61
2023/05/22 06:36:10;;;;;;;4.07;2.00;;;;;;;;;;5110254;28;20100;-61
2023/05/22 06:38:38;;;;;;;2.87;1.67;;;;;;;;;;5112896;28;20028;-61
2023/05/22 06:41:05;;;;;;;2.23;1.67;;;;;;;;;;5113416;28;20024;-61
2023/05/22 06:43:32;;;;;;;8.00;2.20;;;;;;;;;;5112495;28;20055;-61
2023/05/22 06:45:58;;;;;;;1.93;1.27;;;;;;;;;;5113098;28;20019;-61
2023/05/22 06:48:25;;;;;;;3.53;1.80;;;;;;;;;;5110288;28;20031;-61
2023/05/22 06:50:52;;;;;;;1.90;1.27;;;;;;;;;;5107799;28;20393;-61
2023/05/22 06:53:19;;;;;;;1.73;1.53;;;;;;;;;;5107505;28;20053;-61
2023/05/22 06:55:45;;;;;;;2.73;1.90;;;;;;;;;;5107493;28;20386;-61
2023/05/22 06:58:12;;;;;;;4.37;1.60;;;;;;;;;;5109278;28;20027;-61
2023/05/22 07:00:39;;;;;;;2.33;1.83;;;;;;;;;;5112256;28;20028;-62
2023/05/22 07:03:06;;;;;;;1.70;1.13;;;;;;;;;;5112722;28;20492;-61
2023/05/22 07:05:32;;;;;;;1.83;1.33;;;;;;;;;;5112757;28;20023;-61
2023/05/22 07:08:00;;;;;;;1.43;1.20;;;;;;;;;;5112768;28;20031;-61
2023/05/22 07:10:26;;;;;;;2.30;1.43;;;;;;;;;;5110330;28;20041;-62
2023/05/22 07:12:54;;;;;;;2.17;1.53;;;;;;;;;;5107152;28;20082;-62
2023/05/22 07:15:20;;;;;;;3.83;1.97;;;;;;;;;;5107270;28;20032;-62
2023/05/22 07:17:48;;;;;;;2.47;1.63;;;;;;;;;;5106651;28;20028;-61
2023/05/22 07:20:15;;;;;;;12.27;2.30;;;;;;;;;;5108244;28;20016;-61
2023/05/22 07:22:42;;;;;;;2.13;1.40;;;;;;;;;;5112569;28;20076;-61
2023/05/22 07:25:09;;;;;;;5.97;2.13;;;;;;;;;;5112740;28;20103;-61
2023/05/22 07:27:35;;;;;;;1.90;1.43;;;;;;;;;;5112560;28;20435;-61
2023/05/22 07:30:02;;;;;;;1.27;1.17;;;;;;;;;;5112445;28;20024;-61
2023/05/22 07:32:29;;;;;;;2.63;1.57;;;;;;;;;;5111291;28;20353;-61
2023/05/22 07:34:56;;;;;;;2.17;1.67;;;;;;;;;;5106607;28;20103;-61
2023/05/22 07:37:23;;;;;;;2.43;1.60;;;;;;;;;;5106958;28;20051;-61
2023/05/22 07:39:49;;;;;;;2.03;1.20;;;;;;;;;;5106963;28;20469;-61
2023/05/22 07:42:16;;;;;;;2.70;1.53;;;;;;;;;;5107391;28;20048;-61
2023/05/22 07:44:43;;;;;;;4.23;2.07;;;;;;;;;;5112291;28;20016;-61
2023/05/22 07:47:10;;;;;;;25.80;1.53;;;;;;;;;;5112555;28;20055;-61
2023/05/22 07:49:36;;;;;;;2.63;1.93;;;;;;;;;;5112206;28;20016;-61
2023/05/22 07:52:03;;;;;;;5.37;1.57;;;;;;;;;;5112065;28;20027;-61
2023/05/22 07:54:30;;;;;;;2.53;1.80;;;;;;;;;;5111557;28;20028;-61
2023/05/22 07:56:56;;;;;;;0.93;0.80;;;;;;;;;;5106767;28;20023;-61
2023/05/22 07:59:24;;;;;;;2.03;1.37;;;;;;;;;;5106965;28;20052;-61
2023/05/22 08:01:51;;;;;;;7.03;1.97;;;;;;;;;;5106788;28;20355;-61
2023/05/22 08:04:17;;;;;;;2.97;1.70;;;;;;;;;;5106912;28;20108;-61
2023/05/22 08:06:44;;;;;;;2.27;1.73;;;;;;;;;;5111728;28;20020;-61
2023/05/22 08:09:11;;;;;;;2.53;1.93;;;;;;;;;;5112156;28;20032;-61
2023/05/22 08:11:40;;;;;;;2.17;1.43;;;;;;;;;;5111728;28;20042;-61
2023/05/22 08:14:07;;;;;;;6.60;1.77;;;;;;;;;;5111967;28;20023;-61
2023/05/22 08:16:34;;;;;;;2.97;1.90;;;;;;;;;;5112268;28;20371;-61
2023/05/22 08:19:01;;;;;;;2.90;1.77;;;;;;;;;;5106511;28;20490;-61
2023/05/22 08:21:28;;;;;;;3.83;1.70;;;;;;;;;;5107613;28;20020;-61
2023/05/22 08:23:55;;;;;;;2.30;1.53;;;;;;;;;;5110071;28;20012;-61
2023/05/22 08:26:22;;;;;;;3.53;1.53;;;;;;;;;;5110122;28;20027;-61
2023/05/22 08:28:48;;;;;;;3.33;1.83;;;;;;;;;;5114392;28;20028;-61
2023/05/22 08:31:15;;;;;;;2.00;1.60;;;;;;;;;;5115537;28;20030;-61
2023/05/22 08:33:42;;;;;;;2.00;1.47;;;;;;;;;;5115667;28;20035;-61
2023/05/22 08:36:08;;;;;;;2.17;1.70;;;;;;;;;;5115521;28;20497;-61
2023/05/22 08:38:35;;;;;;;3.43;1.60;;;;;;;;;;5115628;28;20470;-61
2023/05/22 08:41:02;;;;;;;2.37;1.73;;;;;;;;;;5110480;28;20505;-62
2023/05/22 08:43:29;;;;;;;2.17;1.10;;;;;;;;;;5110070;28;20028;-61
2023/05/22 08:45:59;;;;;;;3.17;1.23;;;;;;;;;;5109816;28;20027;-61
2023/05/22 08:48:29;;;;;;;1.63;1.17;;;;;;;;;;5109769;28;20027;-61
2023/05/22 08:50:57;;;;;;;6.37;1.97;;;;;;;;;;5113796;28;20035;-61
2023/05/22 08:53:26;;;;;;;2.53;1.63;;;;;;;;;;5115174;28;20016;-61
2023/05/22 08:55:53;;;;;;;1.83;1.23;;;;;;;;;;5115100;28;20023;-61
2023/05/22 08:58:20;;;;;;;4.20;1.87;;;;;;;;;;5114863;28;20110;-61
2023/05/22 09:00:47;;;;;;;2.63;1.53;;;;;;;;;;5114739;28;20019;-61
2023/05/22 09:03:15;;;;;;;8.60;2.13;;;;;;;;;;5110159;28;20031;-61
2023/05/22 09:05:41;;;;;;;2.70;1.43;;;;;;;;;;5109665;28;20466;-62
2023/05/22 09:08:08;;;;;;;2.27;1.50;;;;;;;;;;5109603;28;20494;-61
2023/05/22 09:10:36;;;;;;;2.13;1.40;;;;;;;;;;5109197;28;20036;-61
2023/05/22 09:13:04;;;;;;;4.00;1.10;;;;;;;;;;5112775;28;20423;-61
2023/05/22 09:15:34;;;;;;;2.97;1.53;;;;;;;;;;5114535;28;20120;-61
2023/05/22 09:18:01;;;;;;;3.10;1.93;;;;;;;;;;5114044;28;20042;-61
2023/05/22 09:20:27;;;;;;;6.47;1.80;;;;;;;;;;5114649;28;20012;-61
2023/05/22 09:22:55;;;;;;;3.33;1.60;;;;;;;;;;5114676;28;20031;-61
2023/05/22 09:25:22;;;;;;;3.30;1.53;;;;;;;;;;5110701;28;20051;-61
2023/05/22 09:27:49;;;;;;;3.43;1.30;;;;;;;;;;5109021;28;20375;-61
2023/05/22 09:30:16;;;;;;;3.23;1.93;;;;;;;;;;5108972;28;20022;-61
2023/05/22 09:32:45;;;;;;;1.73;1.30;;;;;;;;;;5109021;28;20605;-61
2023/05/22 09:35:13;;;;;;;2.00;1.47;;;;;;;;;;5111341;28;20039;-61
2023/05/22 09:37:40;;;;;;;4.80;1.67;;;;;;;;;;5114206;28;20036;-61
2023/05/22 09:40:08;;;;;;;1.77;1.40;;;;;;;;;;5114384;28;20069;-61
2023/05/22 09:42:35;;;;;;;2.00;1.33;;;;;;;;;;5114267;28;20015;-61
2023/05/22 09:45:05;;;;;;;1.60;1.27;;;;;;;;;;5114241;28;20370;-61
2023/05/22 09:47:33;;;;;;;5.83;2.20;;;;;;;;;;5110306;28;20110;-61
2023/05/22 09:50:03;;;;;;;2.57;1.90;;;;;;;;;;5108405;28;20378;-61
2023/05/22 09:52:33;;;;;;;4.30;2.37;;;;;;;;;;5108484;28;20031;-61
2023/05/22 09:55:02;;;;;;;3.00;1.50;;;;;;;;;;5108656;28;20462;-61
2023/05/22 09:57:32;;;;;;;3.77;1.80;;;;;;;;;;5111396;28;20378;-61
2023/05/22 09:59:59;;;;;;;2.20;1.50;;;;;;;;;;5113567;28;20043;-61
2023/05/22 10:02:26;;;;;;;4.53;2.33;;;;;;;;;;5113753;28;20016;-61
2023/05/22 10:04:53;;;;;;;2.57;1.63;;;;;;;;;;5113356;28;20023;-61
2023/05/22 10:07:22;;;;;;;2.40;1.83;;;;;;;;;;5113604;28;20064;-61
2023/05/22 10:09:51;;;;;;;2.10;1.53;;;;;;;;;;5110121;28;20359;-61
2023/05/22 10:12:20;;;;;;;1.53;1.27;;;;;;;;;;5108204;28;20016;-61
2023/05/22 10:14:47;;;;;;;7.47;1.63;;;;;;;;;;5108090;28;20016;-61
2023/05/22 10:17:15;;;;;;;3.13;2.07;;;;;;;;;;5108199;28;20547;-61
2023/05/22 10:19:42;;;;;;;2.07;1.70;;;;;;;;;;5110713;28;20118;-61
2023/05/22 10:22:13;;;;;;;2.03;1.53;;;;;;;;;;5113071;28;20120;-61
2023/05/22 10:24:40;;;;;;;2.37;1.60;;;;;;;;;;5113543;28;20043;-61
2023/05/22 10:27:07;;;;;;;3.33;2.13;;;;;;;;;;5113266;28;20023;-61
2023/05/22 10:29:37;;;;;;;3.53;2.57;;;;;;;;;;5113326;28;20069;-61
2023/05/22 10:32:06;;;;;;;3.37;1.83;;;;;;;;;;5109993;28;20458;-60
2023/05/22 10:34:33;;;;;;;4.03;1.70;;;;;;;;;;5107899;28;20032;-61
2023/05/22 10:37:10;;;;;;;18.17;2.20;;;;;;;;;;5107413;28;20076;-61
2023/05/22 10:39:43;;;;;;;3.40;1.90;;;;;;;;;;5107691;28;20031;-61
2023/05/22 10:42:13;;;;;;;2.10;1.53;;;;;;;;;;5111240;28;20358;-61
2023/05/22 10:44:40;;;;;;;2.83;1.73;;;;;;;;;;5112372;28;20098;-62
2023/05/22 10:47:12;;;;;;;3.00;1.90;;;;;;;;;;5113107;28;20069;-61
2023/05/22 10:49:49;;;;;;;2.40;1.47;;;;;;;;;;5112955;28;20068;-61
2023/05/22 10:52:20;;;;;;;3.80;1.60;;;;;;;;;;5112996;28;20459;-61
2023/05/22 10:54:52;;;;;;;3.43;1.53;;;;;;;;;;5108742;28;20430;-61
2023/05/22 10:57:19;;;;;;;1.40;1.20;;;;;;;;;;5107582;28;20028;-61
2023/05/22 10:59:49;;;;;;;1.70;1.30;;;;;;;;;;5107167;28;20474;-61
2023/05/22 11:02:30;;;;;;;4.07;2.53;;;;;;;;;;5107472;28;20016;-61
2023/05/22 11:05:35;;;;;;;2.57;2.03;;;;;;;;;;5111633;28;20019;-61
2023/05/22 11:08:10;;;;;;;2.50;1.85;;;;;;;;;;5029796;28;20040;-61
2023/05/22 11:10:57;;;;;;;2.37;1.70;;;;;;;;;;5103299;28;20046;-61
2023/05/22 11:13:27;;;;;;;2.07;1.50;;;;;;;;;;5112857;28;20015;-60
2023/05/22 11:15:58;;;;;;;4.73;1.97;;;;;;;;;;5110894;28;20020;-61
2023/05/22 11:18:28;;;;;;;3.27;1.73;;;;;;;;;;5106974;28;20040;-61
2023/05/22 11:20:55;;;;;;;2.87;2.03;;;;;;;;;;5107319;28;20080;-61
2023/05/22 11:23:22;;;;;;;2.53;1.73;;;;;;;;;;5107190;28;20045;-60
2023/05/22 11:25:49;;;;;;;3.73;1.80;;;;;;;;;;5108233;28;20157;-61
2023/05/22 11:28:16;;;;;;;4.37;1.83;;;;;;;;;;5112482;28;20032;-60
2023/05/22 11:30:43;;;;;;;2.47;1.90;;;;;;;;;;5112463;28;20106;-60
2023/05/22 11:33:11;;;;;;;2.37;1.73;;;;;;;;;;5112609;28;20124;-63
2023/05/22 11:35:38;;;;;;;2.43;1.67;;;;;;;;;;5112374;28;20023;-61
2023/05/22 11:38:05;;;;;;;2.90;2.00;;;;;;;;;;5111189;28;20038;-61
2023/05/22 11:40:32;;;;;;;3.80;1.80;;;;;;;;;;5107018;28;20513;-61
2023/05/22 11:42:59;;;;;;;2.43;1.70;;;;;;;;;;5107160;28;20091;-61
2023/05/22 11:45:26;;;;;;;1.97;1.50;;;;;;;;;;5106881;28;20385;-61
2023/05/22 11:47:53;;;;;;;5.43;1.80;;;;;;;;;;5107330;28;20081;-61
2023/05/22 11:50:20;;;;;;;3.53;2.73;;;;;;;;;;5112345;28;20019;-61
2023/05/22 11:52:46;;;;;;;2.67;2.13;;;;;;;;;;5112027;28;20069;-61
2023/05/22 11:55:13;;;;;;;4.27;2.90;;;;;;;;;;5112294;28;20050;-61
2023/05/22 11:57:40;;;;;;;4.90;1.87;;;;;;;;;;5114725;28;20031;-60
2023/05/22 12:00:08;;;;;;;3.67;2.43;;;;;;;;;;5115522;28;20028;-61
2023/05/22 12:02:44;;;;;;;3.47;2.03;;;;;;;;;;5092181;28;20371;-61
2023/05/22 12:05:11;;;;;;;3.20;2.27;;;;;;;;;;5110690;28;20538;-61
2023/05/22 12:07:38;;;;;;;3.00;2.20;;;;;;;;;;5110569;28;20028;-61
2023/05/22 12:10:06;;;;;;;5.23;2.60;;;;;;;;;;5110193;28;20078;-61
2023/05/22 12:12:33;;;;;;;4.60;2.57;;;;;;;;;;5115597;28;20034;-61
2023/05/22 12:15:00;;;;;;;5.57;2.73;;;;;;;;;;5115924;28;20028;-61
2023/05/22 12:17:28;;;;;;;4.17;2.07;;;;;;;;;;5115385;28;20012;-61
2023/05/22 12:19:55;;;;;;;2.80;2.30;;;;;;;;;;5115699;28;20370;-61
2023/05/22 12:22:25;;;;;;;2.93;2.00;;;;;;;;;;5115137;28;20145;-61
2023/05/22 12:24:52;;;;;;;10.10;2.90;;;;;;;;;;5110183;28;20419;-60
2023/05/22 12:27:19;;;;;;;2.90;1.97;;;;;;;;;;5110073;28;20095;-62
2023/05/22 12:29:45;;;;;;;1.87;1.63;;;;;;;;;;5110041;28;20020;-61
2023/05/22 12:32:12;;;;;;;4.00;2.50;;;;;;;;;;5110101;28;20020;-60
2023/05/22 12:34:46;;;;;;;5.70;3.03;;;;;;;;;;5115476;28;20035;-61
2023/05/22 12:37:23;;;;;;;5.70;2.83;;;;;;;;;;5115287;28;20492;-61
2023/05/22 12:40:08;;;;;;;7.00;2.77;;;;;;;;;;5115142;28;20032;-61
2023/05/22 12:42:35;;;;;;;1.90;1.65;;;;;;;;;;5114712;28;20355;-61
2023/05/22 12:45:01;;;;;;;3.13;2.30;;;;;;;;;;5113794;28;20398;-61
2023/05/22 12:47:28;;;;;;;2.07;1.60;;;;;;;;;;5109578;28;20031;-61
2023/05/22 12:49:55;;;;;;;1.73;1.10;;;;;;;;;;5109837;28;20457;-61
2023/05/22 12:52:22;;;;;;;3.27;2.37;;;;;;;;;;5109617;28;20031;-61
2023/05/22 12:54:49;;;;;;;8.03;2.60;;;;;;;;;;5110038;28;20073;-61
2023/05/22 12:57:16;;;;;;;5.87;2.40;;;;;;;;;;5114986;28;20020;-61
2023/05/22 12:59:43;;;;;;;12.10;4.43;;;;;;;;;;5114262;28;20027;-61
2023/05/22 13:02:10;;;;;;;5.13;2.53;;;;;;;;;;5115248;28;20028;-61
2023/05/22 13:04:36;;;;;;;4.00;2.83;;;;;;;;;;5114690;28;20106;-61
2023/05/22 13:07:03;;;;;;;23.47;2.50;;;;;;;;;;5113589;28;20047;-61
2023/05/22 13:09:30;;;;;;;9.80;3.20;;;;;;;;;;5109371;28;20371;-61
2023/05/22 13:11:57;;;;;;;27.60;2.23;;;;;;;;;;5109270;28;20030;-61
2023/05/22 13:14:23;;;;;;;2.70;2.17;;;;;;;;;;5109429;28;20378;-61
2023/05/22 13:16:50;;;;;;;4.33;2.37;;;;;;;;;;5108740;28;20024;-61
2023/05/22 13:19:17;;;;;;;4.83;1.97;;;;;;;;;;5114372;28;20039;-61
2023/05/22 13:21:44;;;;;;;3.17;1.93;;;;;;;;;;5114590;28;20386;-61
2023/05/22 13:24:10;;;;;;;3.07;1.57;;;;;;;;;;5114489;28;20378;-62
2023/05/22 13:26:37;;;;;;;3.10;2.20;;;;;;;;;;5114554;28;20521;-62
2023/05/22 13:29:04;;;;;;;3.03;1.60;;;;;;;;;;5114064;28;20351;-62
2023/05/22 13:31:36;;;;;;;3.97;2.37;;;;;;;;;;5108926;28;20024;-61
2023/05/22 13:34:03;;;;;;;14.40;2.97;;;;;;;;;;5108632;28;21949;-61
2023/05/22 13:36:30;;;;;;;4.77;2.10;;;;;;;;;;5108872;28;20447;-61
2023/05/22 13:38:56;;;;;;;2.57;2.07;;;;;;;;;;5108612;28;20543;-61
2023/05/22 13:41:23;;;;;;;5.53;2.70;;;;;;;;;;5113587;28;20030;-61
2023/05/22 13:43:50;;;;;;;2.10;1.50;;;;;;;;;;5114058;28;20027;-61
2023/05/22 13:46:19;;;;;;;2.13;1.67;;;;;;;;;;5114042;28;20073;-61
2023/05/22 13:48:48;;;;;;;3.23;2.00;;;;;;;;;;5113505;28;20057;-61
2023/05/22 13:51:15;;;;;;;3.00;1.83;;;;;;;;;;5113819;28;20492;-61
2023/05/22 13:53:42;;;;;;;3.43;1.60;;;;;;;;;;5108365;28;20028;-62
2023/05/22 13:56:08;;;;;;;2.73;1.70;;;;;;;;;;5108632;28;20023;-61
2023/05/22 13:58:35;;;;;;;4.87;2.47;;;;;;;;;;5108324;28;20118;-61
2023/05/22 14:01:02;;;;;;;3.30;2.13;;;;;;;;;;5108428;28;20027;-61
2023/05/22 14:03:29;;;;;;;1.83;1.43;;;;;;;;;;5112689;28;20106;-61
2023/05/22 14:05:55;;;;;;;3.23;2.17;;;;;;;;;;5113477;28;20020;-62
2023/05/22 14:08:22;;;;;;;2.43;1.77;;;;;;;;;;5113386;28;20037;-61
2023/05/22 14:10:49;;;;;;;4.00;2.13;;;;;;;;;;5113490;28;20031;-63
2023/05/22 14:13:16;;;;;;;3.63;2.33;;;;;;;;;;5113765;28;20019;-61
2023/05/22 14:15:45;;;;;;;3.23;2.07;;;;;;;;;;5108669;28;20027;-62
2023/05/22 14:18:13;;;;;;;2.50;1.83;;;;;;;;;;5107922;28;20039;-61
2023/05/22 14:20:40;;;;;;;2.87;2.23;;;;;;;;;;5106861;28;20020;-61
2023/05/22 14:23:07;;;;;;;1.03;0.83;;;;;;;;;;5107940;28;20028;-61
2023/05/22 14:25:33;;;;;;;5.77;2.50;;;;;;;;;;5111884;28;20027;-62
2023/05/22 14:28:00;;;;;;;2.70;1.80;;;;;;;;;;5113368;28;20020;-62
2023/05/22 14:30:27;;;;;;;3.50;1.93;;;;;;;;;;5113295;28;20080;-61
2023/05/22 14:32:54;;;;;;;3.20;2.30;;;;;;;;;;5113194;28;20073;-62
2023/05/22 14:35:20;;;;;;;6.80;1.80;;;;;;;;;;5113153;28;20016;-61
2023/05/22 14:37:47;;;;;;;2.67;1.90;;;;;;;;;;5108314;28;20028;-62
2023/05/22 14:40:14;;;;;;;2.33;1.30;;;;;;;;;;5107763;28;20016;-62
2023/05/22 14:42:41;;;;;;;2.20;1.57;;;;;;;;;;5107523;28;20031;-61
2023/05/22 14:45:08;;;;;;;2.27;1.47;;;;;;;;;;5107353;28;20496;-62
2023/05/22 14:47:35;;;;;;;1.63;1.15;;;;;;;;;;5110817;28;20099;-61